Edgeworth, Pennsylvania
Current Conditions -  °F | °C
As of 5:51 AM on Saturday 22 Nov 2014 (Local Time) from KPIT Reporting Station
Few Clouds Few Clouds  
Wind Chill: 18°   Ceiling: Unl
Heat Index: 18°   Visibility: 10mi
Dew Point:   Wind: 0mph
Humidity: 68%   Direction: NA
Pressure: 30.33"   Gusts: NA
Location:  40.5741°N, 80.1457°W
Report Text: KPIT 221051Z 00000KT 10SM FEW140 M08/M13 A3033 RMK AO2 SLP298 T10781128
Loading
Personal Weather Stations






























Interactive Weather Map New forecast layout! Learn more

10-Day Weather Forecast

Advertisements
Track Severe Weather on mobile